Time;durP1;ratioP1;P1;durP2;ratioP2;P2;SDS_P1;SDS_P2;PMS_P1;PMS_P2;Temp;Humidity;BMP_temperature;BMP_pressure;BME280_temperature;BME280_humidity;BME280_pressure;Samples;Min_cycle;Max_cycle;Signal;HPM_P1;HPM_P2
2023/01/23 00:01:27;;;;;;;13.02;6.10;;;2.40;84.80;;;;;;5082135;28;20063;-64
2023/01/23 00:03:54;;;;;;;9.00;4.35;;;2.40;84.70;;;;;;5086728;28;20044;-62
2023/01/23 00:06:21;;;;;;;10.52;5.43;;;2.40;84.60;;;;;;5078624;28;20055;-63
2023/01/23 00:08:48;;;;;;;11.15;5.75;;;2.40;84.60;;;;;;5084428;28;20097;-63
2023/01/23 00:11:17;;;;;;;11.02;5.65;;;2.40;84.60;;;;;;5086475;28;20045;-63
2023/01/23 00:13:44;;;;;;;9.10;4.88;;;2.40;84.50;;;;;;5083871;28;20406;-62
2023/01/23 00:16:14;;;;;;;10.48;5.68;;;2.30;84.50;;;;;;5086157;28;20040;-64
2023/01/23 00:18:42;;;;;;;9.05;5.35;;;2.30;84.60;;;;;;5083819;28;20052;-64
2023/01/23 00:21:10;;;;;;;9.13;4.70;;;2.30;84.60;;;;;;5080772;28;20075;-64
2023/01/23 00:23:37;;;;;;;10.60;5.43;;;2.20;84.60;;;;;;5079543;28;20040;-63
2023/01/23 00:26:05;;;;;;;11.32;5.60;;;2.20;84.60;;;;;;5083097;28;20044;-64
2023/01/23 00:28:34;;;;;;;9.82;5.50;;;2.20;84.60;;;;;;5081183;28;20056;-65
2023/01/23 00:31:06;;;;;;;11.23;5.35;;;2.20;84.60;;;;;;5081550;28;20062;-64
2023/01/23 00:33:34;;;;;;;10.93;5.95;;;2.20;84.60;;;;;;5081000;28;20046;-65
2023/01/23 00:36:03;;;;;;;11.48;5.47;;;2.10;84.50;;;;;;5078261;28;20378;-63
2023/01/23 00:38:36;;;;;;;11.40;6.10;;;2.10;84.60;;;;;;5080648;28;20048;-64
2023/01/23 00:41:04;;;;;;;10.30;5.47;;;2.10;84.50;;;;;;5067804;28;20055;-61
2023/01/23 00:43:33;;;;;;;9.57;5.30;;;2.10;84.50;;;;;;5084859;28;20067;-61
2023/01/23 00:46:00;;;;;;;10.45;5.57;;;2.10;84.40;;;;;;5083933;28;20056;-73
2023/01/23 00:48:28;;;;;;;10.73;5.13;;;2.10;84.50;;;;;;5086610;28;20380;-71
2023/01/23 00:50:56;;;;;;;12.40;6.43;;;2.10;84.50;;;;;;5086417;28;20208;-71
2023/01/23 00:53:24;;;;;;;12.82;6.25;;;2.00;84.50;;;;;;5085718;28;20048;-69
2023/01/23 00:55:52;;;;;;;12.65;5.97;;;2.00;84.60;;;;;;5087763;28;20042;-71
2023/01/23 00:58:19;;;;;;;10.95;6.18;;;2.00;84.60;;;;;;5086701;28;20131;-70
2023/01/23 01:00:46;;;;;;;14.20;6.70;;;1.90;84.50;;;;;;5082473;28;20048;-71
2023/01/23 01:03:13;;;;;;;10.73;5.65;;;2.00;84.60;;;;;;5059178;28;20482;-70
2023/01/23 01:05:42;;;;;;;11.45;5.82;;;2.00;84.70;;;;;;5069028;28;20048;-71
2023/01/23 01:08:10;;;;;;;13.18;6.22;;;2.20;84.70;;;;;;5084924;28;20056;-73
2023/01/23 01:10:41;;;;;;;11.43;6.30;;;2.00;84.60;;;;;;5087303;28;20411;-63
2023/01/23 01:13:09;;;;;;;9.77;5.15;;;2.00;84.70;;;;;;5061560;28;20141;-64
2023/01/23 01:15:37;;;;;;;13.40;6.53;;;2.00;84.60;;;;;;5086912;28;20055;-64
2023/01/23 01:18:05;;;;;;;12.77;6.45;;;1.90;84.70;;;;;;5062136;28;20078;-65
2023/01/23 01:20:32;;;;;;;12.68;6.35;;;1.90;84.80;;;;;;5083511;28;20134;-63
2023/01/23 01:23:00;;;;;;;11.65;6.15;;;1.80;84.80;;;;;;5080447;28;20263;-62
2023/01/23 01:25:27;;;;;;;11.10;6.05;;;1.90;84.80;;;;;;5062686;28;20060;-64
2023/01/23 01:27:55;;;;;;;9.98;5.60;;;1.90;84.80;;;;;;5084554;28;20040;-64
2023/01/23 01:30:25;;;;;;;13.35;6.28;;;2.00;84.90;;;;;;5080007;28;20050;-64
2023/01/23 01:32:54;;;;;;;11.80;6.22;;;2.00;84.90;;;;;;5070024;28;20140;-64
2023/01/23 01:35:21;;;;;;;9.68;5.25;;;2.00;84.90;;;;;;5086390;28;20051;-65
2023/01/23 01:37:48;;;;;;;9.88;5.05;;;2.00;84.90;;;;;;5083325;28;20495;-64
2023/01/23 01:40:18;;;;;;;10.70;5.78;;;2.00;84.90;;;;;;5070020;28;20040;-64
2023/01/23 01:42:49;;;;;;;11.27;5.73;;;2.00;84.90;;;;;;5085307;28;20048;-65
2023/01/23 01:45:53;;;;;;;12.70;5.82;;;2.00;85.00;;;;;;5066650;28;20538;-64
2023/01/23 01:48:24;;;;;;;9.10;5.32;;;2.00;84.70;;;;;;5062979;28;20064;-63
2023/01/23 01:50:52;;;;;;;10.35;5.75;;;1.90;84.60;;;;;;5086194;28;20052;-61
2023/01/23 01:53:20;;;;;;;9.65;5.00;;;1.90;84.50;;;;;;5083724;28;20048;-61
2023/01/23 01:55:47;;;;;;;11.65;6.05;;;1.90;84.40;;;;;;5083628;28;20040;-59
2023/01/23 01:58:14;;;;;;;12.25;5.82;;;1.80;84.40;;;;;;5068920;28;20044;-60
2023/01/23 02:00:41;;;;;;;9.98;5.60;;;1.80;84.40;;;;;;5065714;28;20056;-59
2023/01/23 02:03:08;;;;;;;9.20;5.30;;;1.70;84.40;;;;;;5086711;28;20573;-59
2023/01/23 02:05:41;;;;;;;11.38;5.88;;;1.70;84.70;;;;;;5065603;28;20055;-59
2023/01/23 02:08:13;;;;;;;11.32;6.00;;;1.60;84.80;;;;;;5068792;28;20410;-60
2023/01/23 02:10:40;;;;;;;11.82;6.63;;;1.60;84.80;;;;;;5070637;28;20494;-59
2023/01/23 02:13:22;;;;;;;11.35;6.47;;;1.70;84.60;;;;;;5070049;28;20048;-59
2023/01/23 02:15:51;;;;;;;12.35;6.32;;;1.70;84.60;;;;;;5077194;28;20054;-59
2023/01/23 02:18:19;;;;;;;10.68;5.63;;;1.70;84.60;;;;;;5083393;28;20063;-58
2023/01/23 02:20:48;;;;;;;11.68;5.75;;;1.70;84.50;;;;;;5087454;28;20434;-59
2023/01/23 02:23:23;;;;;;;12.82;6.32;;;1.70;84.40;;;;;;5079756;28;20036;-58
2023/01/23 02:25:56;;;;;;;12.20;6.07;;;1.70;84.40;;;;;;5084823;28;20059;-59
2023/01/23 02:28:37;;;;;;;11.27;5.85;;;1.70;84.40;;;;;;5065765;28;20044;-61
2023/01/23 02:31:05;;;;;;;11.63;5.63;;;1.70;84.50;;;;;;5086718;28;20047;-61
2023/01/23 02:33:52;;;;;;;9.93;5.20;;;1.70;84.60;;;;;;5066120;28;20102;-60
2023/01/23 02:36:21;;;;;;;9.63;5.40;;;1.70;84.60;;;;;;5065073;28;20051;-58
2023/01/23 02:39:00;;;;;;;10.73;5.25;;;1.70;84.70;;;;;;5065463;28;20070;-58
2023/01/23 02:41:32;;;;;;;10.13;5.10;;;1.60;84.70;;;;;;5066459;28;20048;-59
2023/01/23 02:44:01;;;;;;;;;;;1.60;84.80;;;;;;5066787;28;20044;-57
2023/01/23 02:46:28;;;;;;;9.75;5.50;;;1.70;84.90;;;;;;5085311;28;20033;-60
2023/01/23 02:48:55;;;;;;;10.20;5.45;;;1.60;85.00;;;;;;5086499;28;20048;-59
2023/01/23 02:51:23;;;;;;;9.13;5.05;;;1.70;85.10;;;;;;5059479;28;20048;-59
2023/01/23 02:53:50;;;;;;;9.65;4.88;;;1.70;85.00;;;;;;5083690;28;20047;-58
2023/01/23 02:56:18;;;;;;;9.88;5.18;;;1.60;85.20;;;;;;5070427;28;20052;-58
2023/01/23 03:01:34;;;;;;;9.38;5.22;;;1.70;85.30;;;;;;5065748;28;20081;-59
2023/01/23 03:04:03;;;;;;;9.65;5.38;;;1.70;85.40;;;;;;5063417;28;20101;-58
2023/01/23 03:06:35;;;;;;;8.73;4.63;;;1.70;85.30;;;;;;5068497;28;20059;-58
2023/01/23 03:09:04;;;;;;;10.25;4.63;;;1.70;85.40;;;;;;5087711;28;20632;-64
2023/01/23 03:11:32;;;;;;;12.43;5.00;;;1.70;85.30;;;;;;5081367;28;20438;-59
2023/01/23 03:14:06;;;;;;;10.45;5.35;;;1.70;85.20;;;;;;5085695;28;20056;-59
2023/01/23 03:16:33;;;;;;;10.75;5.28;;;1.80;85.10;;;;;;5063657;28;20060;-58
2023/01/23 03:19:04;;;;;;;9.02;5.38;;;1.80;85.00;;;;;;5081807;28;20052;-59
2023/01/23 03:21:32;;;;;;;9.60;4.82;;;1.80;85.00;;;;;;5059427;28;20553;-60
2023/01/23 03:23:59;;;;;;;10.10;5.43;;;1.80;85.10;;;;;;5086529;28;20131;-58
2023/01/23 03:26:26;;;;;;;8.77;4.35;;;1.80;85.10;;;;;;5067203;28;20048;-59
2023/01/23 03:31:40;;;;;;;9.10;4.75;;;1.80;85.30;;;;;;5071121;28;20040;-58
2023/01/23 03:34:07;;;;;;;8.88;5.00;;;1.80;85.40;;;;;;5059959;28;20051;-59
2023/01/23 03:36:36;;;;;;;10.70;5.00;;;1.70;85.50;;;;;;5076942;28;20563;-59
2023/01/23 03:41:50;;;;;;;11.60;5.10;;;1.80;85.50;;;;;;5059529;28;20052;-58
2023/01/23 03:44:20;;;;;;;11.02;5.15;;;1.90;85.40;;;;;;5064088;28;20044;-59
2023/01/23 03:46:50;;;;;;;9.05;4.78;;;1.80;85.40;;;;;;5086083;28;20063;-71
2023/01/23 03:49:18;;;;;;;7.93;4.50;;;1.80;85.50;;;;;;5066091;28;20410;-73
2023/01/23 03:51:49;;;;;;;9.60;4.60;;;1.90;85.50;;;;;;5062377;28;20044;-71
2023/01/23 03:54:16;;;;;;;9.48;4.70;;;1.90;85.50;;;;;;5066095;28;20059;-73
2023/01/23 03:56:43;;;;;;;9.27;4.72;;;1.90;85.50;;;;;;5084175;28;20052;-72
2023/01/23 03:59:25;;;;;;;9.80;4.95;;;1.90;85.60;;;;;;5060551;28;20135;-71
2023/01/23 04:01:54;;;;;;;8.55;4.13;;;1.90;85.60;;;;;;5066730;28;20133;-73
2023/01/23 04:04:21;;;;;;;9.00;4.55;;;1.80;85.70;;;;;;5063417;28;20067;-72
2023/01/23 04:06:48;;;;;;;8.18;4.32;;;1.80;85.70;;;;;;5068903;28;20510;-71
2023/01/23 04:09:16;;;;;;;10.50;4.40;;;1.80;85.80;;;;;;5061208;28;20055;-71
2023/01/23 04:11:43;;;;;;;8.40;4.35;;;1.80;85.80;;;;;;5060983;28;20050;-72
2023/01/23 04:14:11;;;;;;;8.77;4.40;;;1.90;85.80;;;;;;5068323;28;20052;-73
2023/01/23 04:16:37;;;;;;;10.18;4.30;;;1.90;85.90;;;;;;5068003;28;20056;-71
2023/01/23 04:19:06;;;;;;;9.02;4.80;;;1.90;85.80;;;;;;5065564;28;20476;-72
2023/01/23 04:21:33;;;;;;;7.93;4.40;;;1.80;85.80;;;;;;5066622;28;20056;-72
2023/01/23 04:23:59;;;;;;;8.45;4.72;;;1.90;85.90;;;;;;5061558;28;20126;-72
2023/01/23 04:26:26;;;;;;;8.55;4.13;;;1.90;85.90;;;;;;5067312;28;20079;-71
2023/01/23 04:28:53;;;;;;;8.25;4.47;;;1.90;85.80;;;;;;5064854;28;20151;-71
2023/01/23 04:31:21;;;;;;;8.23;4.15;;;1.90;85.80;;;;;;5086806;28;20135;-69
2023/01/23 04:33:49;;;;;;;8.27;4.18;;;1.90;86.00;;;;;;5070792;28;20101;-69
2023/01/23 04:36:18;;;;;;;9.32;4.53;;;1.90;86.00;;;;;;5067469;28;20155;-65
2023/01/23 04:38:45;;;;;;;8.27;4.00;;;1.80;86.00;;;;;;5066039;28;20074;-65
2023/01/23 04:41:22;;;;;;;8.57;4.20;;;1.90;86.00;;;;;;5069098;28;20085;-64
2023/01/23 04:43:55;;;;;;;8.00;3.70;;;1.90;85.80;;;;;;5063399;28;20047;-65
2023/01/23 04:46:22;;;;;;;7.65;3.75;;;1.90;85.70;;;;;;5068215;28;20495;-66
2023/01/23 04:48:59;;;;;;;7.43;3.60;;;2.00;85.70;;;;;;5082672;28;20044;-65
2023/01/23 04:51:28;;;;;;;7.30;3.45;;;2.00;85.70;;;;;;5070111;28;20138;-65
2023/01/23 04:53:56;;;;;;;7.45;3.45;;;2.00;85.80;;;;;;5070882;28;20556;-65
2023/01/23 04:56:23;;;;;;;7.78;3.55;;;2.00;85.70;;;;;;5069535;28;20040;-65
2023/01/23 04:58:52;;;;;;;7.13;3.60;;;2.00;85.80;;;;;;5065459;28;20044;-65
2023/01/23 05:01:21;;;;;;;7.57;3.70;;;2.00;85.80;;;;;;5063653;28;20063;-69
2023/01/23 05:03:49;;;;;;;8.32;4.07;;;2.00;85.80;;;;;;5067985;28;20047;-68
2023/01/23 05:06:16;;;;;;;6.80;3.58;;;2.00;85.90;;;;;;5069833;28;20051;-68
2023/01/23 05:08:45;;;;;;;7.63;3.63;;;2.00;85.90;;;;;;5070490;28;20058;-70
2023/01/23 05:11:22;;;;;;;8.95;4.00;;;2.00;85.90;;;;;;5065237;28;20124;-69
2023/01/23 05:13:49;;;;;;;6.72;3.10;;;2.00;85.90;;;;;;5065537;28;20052;-68
2023/01/23 05:16:17;;;;;;;7.28;3.40;;;2.00;85.80;;;;;;5064138;28;20044;-70
2023/01/23 05:19:13;;;;;;;6.03;3.30;;;2.00;85.70;;;;;;5087526;28;20047;-69
2023/01/23 05:21:40;;;;;;;9.40;3.50;;;2.00;85.70;;;;;;5068986;28;20055;-59
2023/01/23 05:24:12;;;;;;;10.50;3.90;;;2.00;85.70;;;;;;5071101;28;20048;-61
2023/01/23 05:26:38;;;;;;;8.50;3.83;;;2.00;85.70;;;;;;5064424;28;20461;-61
2023/01/23 05:29:06;;;;;;;7.65;3.45;;;2.00;85.70;;;;;;5090275;28;20044;-60
2023/01/23 05:31:36;;;;;;;7.72;3.72;;;2.00;85.80;;;;;;5066114;28;20055;-60
2023/01/23 05:34:23;;;;;;;7.50;3.70;;;2.00;85.80;;;;;;5053636;28;20944;-60
2023/01/23 05:36:50;;;;;;;6.13;3.33;;;2.00;85.60;;;;;;5087727;28;20120;-58
2023/01/23 05:39:19;;;;;;;7.10;3.88;;;2.00;85.50;;;;;;5070577;28;20043;-59
2023/01/23 05:41:45;;;;;;;6.93;3.80;;;2.00;85.60;;;;;;5069977;28;20056;-61
2023/01/23 05:44:47;;;;;;;6.63;3.85;;;2.00;85.60;;;;;;5068116;28;20044;-61
2023/01/23 05:47:24;;;;;;;6.70;3.38;;;2.00;85.70;;;;;;5061196;28;20192;-70
2023/01/23 05:49:51;;;;;;;7.43;3.90;;;2.00;85.90;;;;;;5063544;28;20079;-69
2023/01/23 05:52:20;;;;;;;6.90;3.40;;;1.90;85.90;;;;;;5088047;28;20048;-65
2023/01/23 05:54:49;;;;;;;6.25;3.40;;;2.00;85.90;;;;;;5068664;28;20130;-66
2023/01/23 05:57:16;;;;;;;7.70;3.20;;;2.00;85.80;;;;;;5066214;28;20169;-59
2023/01/23 06:00:01;;;;;;;6.30;3.25;;;2.00;85.70;;;;;;5087743;28;20059;-58
2023/01/23 06:02:42;;;;;;;7.47;3.58;;;2.00;85.60;;;;;;5084178;28;20074;-65
2023/01/23 06:05:28;;;;;;;8.05;3.33;;;2.00;85.70;;;;;;5086633;28;20059;-64
2023/01/23 06:08:18;;;;;;;6.80;3.30;;;2.10;85.50;;;;;;5085757;28;20071;-65
2023/01/23 06:10:46;;;;;;;5.97;2.97;;;2.00;85.50;;;;;;5070707;28;20052;-60
2023/01/23 06:13:13;;;;;;;5.68;3.17;;;2.10;85.40;;;;;;5076267;28;20112;-61
2023/01/23 06:15:42;;;;;;;6.07;3.08;;;2.00;85.40;;;;;;5067282;28;20047;-60
2023/01/23 06:18:11;;;;;;;6.30;3.13;;;2.10;85.30;;;;;;5064672;28;20044;-62
2023/01/23 06:20:38;;;;;;;8.98;3.45;;;2.10;85.30;;;;;;5061137;28;20060;-71
2023/01/23 06:23:05;;;;;;;6.97;3.30;;;2.00;85.30;;;;;;5070117;28;20052;-70
2023/01/23 06:25:32;;;;;;;5.55;3.28;;;2.10;85.30;;;;;;5067584;28;20074;-70
2023/01/23 06:28:05;;;;;;;6.88;3.42;;;2.00;85.30;;;;;;5062246;28;20044;-72
2023/01/23 06:30:35;;;;;;;5.63;3.13;;;2.10;85.30;;;;;;5059125;28;20052;-70
2023/01/23 06:33:02;;;;;;;5.88;3.20;;;2.10;85.40;;;;;;5061194;28;20413;-70
2023/01/23 06:35:35;;;;;;;6.65;3.42;;;2.10;85.40;;;;;;5065511;28;20083;-72
2023/01/23 06:38:01;;;;;;;7.28;3.75;;;2.10;85.30;;;;;;5086031;28;20391;-71
2023/01/23 06:40:29;;;;;;;6.90;3.65;;;2.00;85.30;;;;;;5067498;28;20055;-71
2023/01/23 06:43:24;;;;;;;5.90;2.88;;;2.10;85.50;;;;;;5085507;28;20062;-73
2023/01/23 06:45:51;;;;;;;6.50;3.38;;;2.10;85.30;;;;;;5056759;28;20496;-67
2023/01/23 06:48:19;;;;;;;8.65;4.43;;;2.10;85.40;;;;;;5066661;28;20051;-65
2023/01/23 06:50:47;;;;;;;6.53;3.55;;;2.10;85.40;;;;;;5082739;28;20115;-60
2023/01/23 06:53:16;;;;;;;5.60;3.30;;;2.10;85.40;;;;;;5066787;28;20101;-61
2023/01/23 06:55:44;;;;;;;6.97;3.72;;;2.10;85.30;;;;;;5087401;28;20141;-60
2023/01/23 06:58:12;;;;;;;6.30;3.72;;;2.20;85.30;;;;;;5066786;28;20055;-59
2023/01/23 07:00:43;;;;;;;7.43;3.80;;;2.20;85.30;;;;;;5065188;28;20044;-67
2023/01/23 07:03:11;;;;;;;6.53;3.17;;;2.20;85.20;;;;;;5059326;28;20048;-69
2023/01/23 07:05:41;;;;;;;6.78;3.90;;;2.20;85.30;;;;;;5064811;28;20131;-70
2023/01/23 07:08:09;;;;;;;7.82;3.90;;;2.20;85.30;;;;;;5083037;28;20060;-69
2023/01/23 07:10:37;;;;;;;7.88;4.18;;;2.20;85.10;;;;;;5087157;28;20135;-70
2023/01/23 07:13:04;;;;;;;7.25;3.65;;;2.20;85.10;;;;;;5064530;28;20036;-66
2023/01/23 07:15:31;;;;;;;6.97;4.32;;;2.20;85.00;;;;;;5065016;28;20113;-64
2023/01/23 07:17:59;;;;;;;7.88;4.60;;;2.20;85.10;;;;;;5056086;28;20047;-65
2023/01/23 07:20:27;;;;;;;7.07;3.95;;;2.20;85.00;;;;;;5085184;28;20086;-64
2023/01/23 07:22:58;;;;;;;8.30;4.25;;;2.20;85.00;;;;;;5066651;28;20524;-65
2023/01/23 07:25:25;;;;;;;7.50;4.03;;;2.10;85.00;;;;;;5087561;28;20429;-65
2023/01/23 07:27:52;;;;;;;8.93;4.72;;;2.10;85.00;;;;;;5083373;28;20486;-65
2023/01/23 07:30:19;;;;;;;7.88;4.40;;;2.20;85.10;;;;;;5085049;28;20044;-65
2023/01/23 07:32:46;;;;;;;9.15;4.57;;;2.20;84.90;;;;;;5081229;28;20036;-71
2023/01/23 07:35:14;;;;;;;7.47;4.40;;;2.20;84.90;;;;;;5086945;28;20122;-73
2023/01/23 07:37:41;;;;;;;6.90;4.15;;;2.20;84.90;;;;;;5086396;28;20051;-72
2023/01/23 07:40:09;;;;;;;8.07;4.25;;;2.20;84.90;;;;;;5084208;28;20052;-72
2023/01/23 07:42:36;;;;;;;8.00;4.32;;;2.20;84.90;;;;;;5086009;28;20044;-62
2023/01/23 07:45:03;;;;;;;8.32;4.47;;;2.20;84.90;;;;;;5077910;28;20057;-61
2023/01/23 07:47:30;;;;;;;7.65;4.20;;;2.20;84.80;;;;;;5083439;28;20060;-61
2023/01/23 07:49:56;;;;;;;7.15;3.88;;;2.20;84.70;;;;;;5086840;28;20042;-60
2023/01/23 07:52:25;;;;;;;7.93;4.15;;;2.20;84.80;;;;;;5087620;28;20048;-69
2023/01/23 07:54:51;;;;;;;9.45;4.43;;;2.20;84.80;;;;;;5088962;28;20517;-70
2023/01/23 07:57:18;;;;;;;8.95;4.78;;;2.30;84.80;;;;;;5090310;28;20048;-59
2023/01/23 07:59:46;;;;;;;8.50;4.75;;;2.20;84.70;;;;;;5090415;28;20079;-58
2023/01/23 08:02:13;;;;;;;9.13;4.65;;;2.20;84.70;;;;;;5084582;28;20036;-59
2023/01/23 08:04:40;;;;;;;9.25;4.43;;;2.30;84.60;;;;;;5088217;28;20048;-59
2023/01/23 08:07:07;;;;;;;7.75;4.80;;;2.30;84.50;;;;;;5088006;28;20052;-59
2023/01/23 08:09:35;;;;;;;9.35;4.57;;;2.30;84.50;;;;;;5087043;28;20048;-58
2023/01/23 08:12:02;;;;;;;10.05;4.80;;;2.30;84.50;;;;;;5089384;28;20051;-72
2023/01/23 08:14:29;;;;;;;9.27;4.32;;;2.30;84.50;;;;;;5083369;28;22411;-71
2023/01/23 08:16:56;;;;;;;7.40;4.35;;;2.30;84.50;;;;;;5089439;28;20048;-71
2023/01/23 08:19:24;;;;;;;8.90;4.28;;;2.30;84.40;;;;;;5088994;28;20696;-71
2023/01/23 08:21:51;;;;;;;8.07;4.63;;;2.30;84.30;;;;;;5088409;28;20048;-71
2023/01/23 08:24:18;;;;;;;8.57;4.57;;;2.30;84.20;;;;;;5087531;28;20040;-72
2023/01/23 08:26:47;;;;;;;9.23;5.22;;;2.30;84.20;;;;;;5087489;28;20048;-58
2023/01/23 08:29:17;;;;;;;9.63;5.25;;;2.30;84.20;;;;;;5087671;28;20052;-58
2023/01/23 08:31:44;;;;;;;8.80;5.05;;;2.40;84.20;;;;;;5089805;28;20087;-68
2023/01/23 08:34:11;;;;;;;9.27;5.15;;;2.40;84.20;;;;;;5089208;28;20448;-68
2023/01/23 08:36:38;;;;;;;8.73;4.93;;;2.40;84.10;;;;;;5087126;28;20051;-71
2023/01/23 08:39:06;;;;;;;7.32;4.47;;;2.40;84.00;;;;;;5089057;28;20048;-71
2023/01/23 08:41:33;;;;;;;9.40;5.40;;;2.40;84.00;;;;;;5089510;28;20138;-60
2023/01/23 08:44:02;;;;;;;9.77;4.97;;;2.40;83.90;;;;;;5087599;28;20056;-60
2023/01/23 08:46:29;;;;;;;9.30;5.30;;;2.40;84.00;;;;;;5085813;28;20105;-59
2023/01/23 08:48:56;;;;;;;10.05;4.90;;;2.40;84.00;;;;;;5089466;28;20055;-59
2023/01/23 08:51:24;;;;;;;8.93;4.90;;;2.40;83.90;;;;;;5089501;28;20047;-71
2023/01/23 08:53:52;;;;;;;9.27;5.07;;;2.50;83.80;;;;;;5088827;28;20134;-70
2023/01/23 08:56:21;;;;;;;8.85;5.45;;;2.50;83.60;;;;;;5088021;28;20043;-68
2023/01/23 08:58:49;;;;;;;9.30;5.25;;;2.40;83.70;;;;;;5089785;28;20054;-70
2023/01/23 09:01:19;;;;;;;9.60;5.63;;;2.50;83.60;;;;;;5085167;28;20040;-63
2023/01/23 09:03:47;;;;;;;8.82;5.07;;;2.50;83.60;;;;;;5083742;28;20052;-65
2023/01/23 09:06:15;;;;;;;8.68;5.30;;;2.50;83.60;;;;;;5085043;28;20040;-64
2023/01/23 09:08:42;;;;;;;10.75;6.15;;;2.50;83.60;;;;;;5088290;28;20044;-63
2023/01/23 09:11:11;;;;;;;9.25;5.07;;;2.60;83.50;;;;;;5087609;28;20054;-63
2023/01/23 09:13:38;;;;;;;9.50;5.22;;;2.60;83.50;;;;;;5087450;28;20093;-63
2023/01/23 09:16:07;;;;;;;8.35;5.22;;;2.60;83.40;;;;;;5086597;28;20050;-65
2023/01/23 09:18:35;;;;;;;9.38;4.97;;;2.60;83.30;;;;;;5079676;28;20044;-63
2023/01/23 09:21:06;;;;;;;10.27;5.38;;;2.70;83.20;;;;;;5084326;28;20044;-63
2023/01/23 09:23:33;;;;;;;10.02;5.53;;;2.70;83.30;;;;;;5085554;28;20518;-63
2023/01/23 09:26:03;;;;;;;8.90;4.82;;;2.80;83.20;;;;;;5087355;28;20414;-63
2023/01/23 09:28:30;;;;;;;9.27;5.45;;;2.80;83.10;;;;;;5087799;28;20044;-63
2023/01/23 09:30:57;;;;;;;8.23;4.95;;;2.80;83.00;;;;;;5085646;28;20044;-64
2023/01/23 09:33:26;;;;;;;8.35;5.00;;;2.90;83.00;;;;;;5087816;28;20051;-63
2023/01/23 09:35:54;;;;;;;9.18;5.30;;;2.90;83.00;;;;;;5087647;28;20040;-64
2023/01/23 09:38:20;;;;;;;9.70;5.50;;;3.00;82.90;;;;;;5086711;28;20052;-62
2023/01/23 09:40:51;;;;;;;9.93;5.53;;;3.00;82.80;;;;;;5087505;28;20050;-63
2023/01/23 09:43:38;;;;;;;11.05;5.75;;;3.00;82.80;;;;;;5086933;28;20396;-64
2023/01/23 09:46:11;;;;;;;9.73;5.30;;;3.10;83.00;;;;;;5085754;28;20060;-64
2023/01/23 09:48:43;;;;;;;9.07;4.90;;;3.10;82.80;;;;;;5085000;28;20105;-63
2023/01/23 09:51:20;;;;;;;9.02;5.47;;;3.10;82.70;;;;;;5087695;28;20048;-64
2023/01/23 09:53:47;;;;;;;9.57;4.97;;;3.20;82.60;;;;;;5086268;28;20040;-63
2023/01/23 09:56:27;;;;;;;9.52;5.30;;;3.20;82.60;;;;;;5084674;28;20044;-63
2023/01/23 09:59:02;;;;;;;10.68;5.32;;;3.20;82.50;;;;;;5085199;28;20044;-62
2023/01/23 10:01:31;;;;;;;9.88;5.10;;;3.20;82.50;;;;;;5083855;28;20052;-62
2023/01/23 10:04:00;;;;;;;7.90;4.57;;;3.20;82.20;;;;;;5088176;28;20510;-63
2023/01/23 10:06:33;;;;;;;8.63;4.85;;;3.20;82.20;;;;;;5088221;28;20071;-62
2023/01/23 10:09:25;;;;;;;10.30;5.18;;;3.20;82.30;;;;;;5087615;28;20051;-63
2023/01/23 10:12:02;;;;;;;8.73;5.05;;;3.20;82.40;;;;;;5087825;28;20052;-63
2023/01/23 10:14:53;;;;;;;;;;;3.20;82.40;;;;;;5090080;28;20044;-64
2023/01/23 10:17:27;;;;;;;8.45;4.30;;;3.20;82.30;;;;;;5081058;28;19924;-63
2023/01/23 10:20:19;;;;;;;8.00;4.28;;;3.20;82.00;;;;;;5088352;28;20044;-62
2023/01/23 10:22:55;;;;;;;8.40;4.43;;;3.20;81.70;;;;;;5087552;28;20100;-64
2023/01/23 10:25:26;;;;;;;7.57;4.35;;;3.30;81.70;;;;;;5088834;28;20158;-64
2023/01/23 10:27:59;;;;;;;10.00;4.78;;;3.30;81.20;;;;;;5088565;28;20106;-64
2023/01/23 10:30:28;;;;;;;7.78;4.50;;;3.20;81.60;;;;;;5086741;28;20643;-63
2023/01/23 10:32:59;;;;;;;7.75;3.90;;;3.30;81.10;;;;;;5087282;28;20055;-64
2023/01/23 10:35:32;;;;;;;7.93;4.35;;;3.20;81.20;;;;;;5073788;28;20055;-64
2023/01/23 10:38:09;;;;;;;8.23;4.53;;;3.30;80.80;;;;;;5079519;28;20414;-65
2023/01/23 10:43:23;;;;;;;7.90;3.90;;;3.30;81.10;;;;;;5083619;28;20979;-65
2023/01/23 10:45:50;;;;;;;8.30;4.15;;;3.40;80.80;;;;;;5086144;28;20681;-66
2023/01/23 10:48:40;;;;;;;7.53;4.60;;;3.40;80.90;;;;;;5086183;28;20147;-63
2023/01/23 10:51:32;;;;;;;8.85;4.75;;;3.40;80.80;;;;;;5081377;28;20051;-65
2023/01/23 10:54:05;;;;;;;8.35;4.43;;;3.50;80.70;;;;;;5083308;28;20055;-62
2023/01/23 10:56:34;;;;;;;10.15;4.68;;;3.50;80.60;;;;;;5084256;28;20063;-65
2023/01/23 10:59:06;;;;;;;7.90;3.95;;;3.50;80.60;;;;;;5085675;28;20487;-64
2023/01/23 11:01:37;;;;;;;9.25;4.38;;;3.50;80.50;;;;;;5087218;28;20464;-60
2023/01/23 11:04:10;;;;;;;8.30;4.38;;;3.60;80.70;;;;;;5085916;28;20058;-61
2023/01/23 11:06:37;;;;;;;8.68;4.43;;;3.60;80.30;;;;;;5081765;28;20129;-59
2023/01/23 11:09:19;;;;;;;9.15;5.05;;;3.60;80.20;;;;;;5086031;28;20495;-61
2023/01/23 11:11:59;;;;;;;8.18;4.80;;;3.60;80.10;;;;;;5085995;28;20063;-60
2023/01/23 11:14:26;;;;;;;9.40;4.95;;;3.50;80.40;;;;;;5087494;28;20088;-60
2023/01/23 11:17:00;;;;;;;8.55;4.78;;;3.50;80.30;;;;;;5086743;28;20498;-61
2023/01/23 11:19:31;;;;;;;9.32;4.45;;;3.50;80.30;;;;;;5086044;28;20052;-61
2023/01/23 11:22:00;;;;;;;9.10;4.70;;;3.60;80.30;;;;;;5083340;28;20072;-58
2023/01/23 11:24:32;;;;;;;8.50;4.32;;;3.60;80.20;;;;;;5086965;28;20055;-60
2023/01/23 11:27:01;;;;;;;9.75;5.15;;;3.60;80.10;;;;;;5088419;28;20040;-60
2023/01/23 11:29:30;;;;;;;10.38;5.47;;;3.60;79.90;;;;;;5084218;28;20052;-59
2023/01/23 11:32:01;;;;;;;8.27;4.25;;;3.70;80.00;;;;;;5085160;28;20047;-65
2023/01/23 11:34:34;;;;;;;7.32;3.97;;;3.70;80.00;;;;;;5082090;28;20039;-65
2023/01/23 11:37:13;;;;;;;9.10;4.47;;;3.70;80.10;;;;;;5080271;28;20047;-65
2023/01/23 11:39:48;;;;;;;8.05;4.65;;;3.70;80.10;;;;;;5083360;28;20479;-64
2023/01/23 11:42:16;;;;;;;10.13;4.55;;;3.80;79.80;;;;;;5083780;28;20052;-65
2023/01/23 11:44:43;;;;;;;9.15;4.85;;;3.80;79.70;;;;;;5084076;28;20135;-65
2023/01/23 11:47:39;;;;;;;9.85;4.80;;;3.80;79.60;;;;;;5083418;28;20040;-64
2023/01/23 11:50:17;;;;;;;9.35;4.63;;;3.80;79.70;;;;;;5085550;28;20044;-64
2023/01/23 11:52:55;;;;;;;8.98;4.65;;;3.70;79.50;;;;;;5087103;28;20040;-63
2023/01/23 11:55:55;;;;;;;8.50;4.43;;;3.70;79.70;;;;;;5086045;28;20649;-59
2023/01/23 11:58:39;;;;;;;8.27;4.25;;;3.70;80.00;;;;;;5086448;28;20467;-61
2023/01/23 12:01:13;;;;;;;7.82;4.22;;;3.70;79.90;;;;;;5084570;28;20089;-61
2023/01/23 12:04:06;;;;;;;8.85;4.93;;;3.70;79.80;;;;;;5084572;28;20048;-61
2023/01/23 12:06:45;;;;;;;10.35;4.55;;;3.70;79.80;;;;;;5085723;28;20486;-61
2023/01/23 12:09:15;;;;;;;8.57;4.88;;;3.70;79.80;;;;;;5085053;28;20502;-60
2023/01/23 12:11:54;;;;;;;10.23;4.53;;;3.80;79.90;;;;;;5086290;28;20048;-62
2023/01/23 12:14:27;;;;;;;11.13;4.68;;;3.80;80.00;;;;;;5085807;28;20118;-62
2023/01/23 12:17:07;;;;;;;8.65;4.38;;;3.90;80.00;;;;;;5087402;28;20044;-62
2023/01/23 12:19:50;;;;;;;9.10;4.55;;;3.90;79.90;;;;;;5085405;28;20101;-62
2023/01/23 12:22:25;;;;;;;8.55;4.05;;;3.90;79.70;;;;;;5085850;28;20048;-62
2023/01/23 12:25:06;;;;;;;8.65;4.10;;;3.90;79.80;;;;;;5085629;28;20044;-60
2023/01/23 12:27:42;;;;;;;8.23;4.20;;;4.00;79.80;;;;;;5083882;28;20055;-61
2023/01/23 12:30:42;;;;;;;8.25;4.40;;;4.00;79.70;;;;;;5084632;28;20440;-62
2023/01/23 12:33:24;;;;;;;10.05;4.45;;;4.00;79.70;;;;;;5081210;28;20044;-61
2023/01/23 12:36:03;;;;;;;8.07;4.38;;;4.10;79.40;;;;;;5084499;28;20052;-68
2023/01/23 12:38:33;;;;;;;7.80;3.90;;;4.20;79.50;;;;;;5085363;28;20444;-68
2023/01/23 12:41:12;;;;;;;10.55;4.85;;;4.20;79.60;;;;;;5087651;28;20036;-68
2023/01/23 12:43:46;;;;;;;8.93;4.65;;;4.20;79.60;;;;;;5083586;28;20040;-67
2023/01/23 12:46:18;;;;;;;8.90;4.15;;;4.20;79.70;;;;;;5061015;28;20051;-68
2023/01/23 12:48:50;;;;;;;8.40;4.10;;;4.20;79.80;;;;;;5088526;28;20068;-69
2023/01/23 12:51:22;;;;;;;9.18;4.47;;;4.20;79.70;;;;;;5084070;28;20048;-68
2023/01/23 12:53:55;;;;;;;8.38;4.18;;;4.20;79.90;;;;;;5085270;28;20703;-68
2023/01/23 12:56:27;;;;;;;8.63;4.28;;;4.20;79.80;;;;;;5086449;28;20048;-68
2023/01/23 12:59:02;;;;;;;9.45;4.30;;;4.20;79.80;;;;;;5089120;28;20044;-68
2023/01/23 13:01:47;;;;;;;9.10;4.22;;;4.20;79.80;;;;;;5084153;28;20428;-68
2023/01/23 13:04:25;;;;;;;8.30;4.10;;;4.20;79.80;;;;;;5088115;28;20060;-68
2023/01/23 13:07:17;;;;;;;9.60;4.78;;;4.20;79.80;;;;;;5087686;28;20505;-66
2023/01/23 13:09:56;;;;;;;8.63;4.35;;;4.20;79.70;;;;;;5084890;28;20040;-68
2023/01/23 13:12:25;;;;;;;8.27;4.45;;;4.20;79.80;;;;;;5085886;28;20055;-62
2023/01/23 13:15:14;;;;;;;9.30;4.82;;;4.20;79.90;;;;;;5086750;28;20054;-65
2023/01/23 13:17:46;;;;;;;9.55;4.85;;;4.20;79.80;;;;;;5086430;28;20048;-64
2023/01/23 13:23:26;;;;;;;7.65;4.00;;;4.20;79.50;;;;;;5083374;28;20047;-63
2023/01/23 13:26:27;;;;;;;8.43;4.15;;;4.30;79.60;;;;;;5086206;28;20067;-64
2023/01/23 13:28:56;;;;;;;8.77;4.60;;;4.30;79.60;;;;;;5078579;28;20506;-63
2023/01/23 13:31:32;;;;;;;8.82;4.47;;;4.30;79.70;;;;;;5088311;28;20055;-68